Time;durP1;ratioP1;P1;durP2;ratioP2;P2;SDS_P1;SDS_P2;PMS_P1;PMS_P2;Temp;Humidity;BMP_temperature;BMP_pressure;BME280_temperature;BME280_humidity;BME280_pressure;Samples;Min_cycle;Max_cycle;Signal;HPM_P1;HPM_P2
2022/09/10 00:01:02;;;;;;;3.10;1.20;;;;;;;14.30;100.00;98012.25;5103586;28;20265;-69
2022/09/10 00:03:28;;;;;;;2.83;1.10;;;;;;;14.25;100.00;98013.66;5104419;28;20234;-69
2022/09/10 00:05:55;;;;;;;3.53;1.27;;;;;;;14.20;100.00;97997.25;5105246;28;20245;-68
2022/09/10 00:08:22;;;;;;;1.57;1.10;;;;;;;14.16;100.00;97991.31;5103447;28;20301;-69
2022/09/10 00:10:51;;;;;;;4.00;1.10;;;;;;;14.20;100.00;97987.47;5103372;28;20229;-69
2022/09/10 00:13:21;;;;;;;4.40;1.03;;;;;;;14.19;100.00;97990.25;5104239;28;20259;-69
2022/09/10 00:15:50;;;;;;;2.77;1.37;;;;;;;14.17;100.00;97984.19;5104864;28;20634;-69
2022/09/10 00:18:19;;;;;;;1.13;0.90;;;;;;;14.15;100.00;97978.16;5101473;28;20229;-71
2022/09/10 00:20:47;;;;;;;2.53;1.07;;;;;;;14.12;100.00;97973.13;5103182;28;20311;-70
2022/09/10 00:23:14;;;;;;;2.23;1.07;;;;;;;14.15;100.00;97972.84;5102280;28;20243;-70
2022/09/10 00:25:41;;;;;;;1.93;1.23;;;;;;;14.11;100.00;97976.75;5104056;28;20243;-70
2022/09/10 00:28:08;;;;;;;2.10;1.10;;;;;;;14.09;100.00;97973.34;5102914;28;20265;-70
2022/09/10 00:30:41;;;;;;;1.83;1.20;;;;;;;14.11;100.00;97971.44;5101820;28;20226;-70
2022/09/10 00:33:08;;;;;;;1.40;1.13;;;;;;;14.16;100.00;97970.06;5105323;28;20230;-70
2022/09/10 00:35:36;;;;;;;1.73;1.20;;;;;;;14.19;100.00;97969.81;5103287;28;20272;-70
2022/09/10 00:38:03;;;;;;;3.93;1.43;;;;;;;14.26;100.00;97978.09;5102700;28;20287;-70
2022/09/10 00:40:31;;;;;;;2.57;1.20;;;;;;;14.36;100.00;97971.03;5102625;28;20514;-70
2022/09/10 00:42:58;;;;;;;2.90;1.47;;;;;;;14.38;100.00;97969.94;5103117;28;20230;-71
2022/09/10 00:45:26;;;;;;;2.10;1.30;;;;;;;14.46;100.00;97983.38;5103193;28;20262;-73
2022/09/10 00:47:58;;;;;;;1.60;1.20;;;;;;;14.50;100.00;97973.31;5102491;28;20291;-73
2022/09/10 00:50:28;;;;;;;3.23;1.30;;;;;;;14.54;100.00;97980.88;5102506;28;20285;-73
2022/09/10 00:52:58;;;;;;;2.57;1.30;;;;;;;14.54;100.00;97985.38;5105703;28;20289;-72
2022/09/10 00:55:25;;;;;;;2.10;1.20;;;;;;;14.57;100.00;97988.63;5102416;28;20222;-72
2022/09/10 00:57:56;;;;;;;5.03;1.40;;;;;;;14.63;100.00;97997.88;5102438;28;20703;-74
2022/09/10 01:00:23;;;;;;;2.63;1.20;;;;;;;14.70;100.00;97991.03;5115647;28;20268;-72
2022/09/10 01:02:50;;;;;;;2.00;1.17;;;;;;;14.64;100.00;97986.25;5102384;28;20654;-69
2022/09/10 01:05:19;;;;;;;3.57;1.50;;;;;;;14.60;100.00;97990.16;5102337;28;20291;-68
2022/09/10 01:07:46;;;;;;;2.87;1.40;;;;;;;14.61;100.00;97978.56;5102269;28;20253;-67
2022/09/10 01:10:17;;;;;;;1.73;1.20;;;;;;;14.56;100.00;97983.44;5100603;28;20230;-68
2022/09/10 01:13:05;;;;;;;2.57;1.30;;;;;;;14.55;100.00;97985.22;5104702;28;20232;-68
2022/09/10 01:15:39;;;;;;;2.20;1.10;;;;;;;14.52;100.00;97982.00;5102242;28;20224;-67
2022/09/10 01:18:18;;;;;;;1.50;1.40;;;;;;;14.49;100.00;97987.59;5102424;28;20218;-67
2022/09/10 01:21:00;;;;;;;2.63;1.03;;;;;;;14.50;100.00;97992.78;5103221;28;20268;-68
2022/09/10 01:24:19;;;;;;;2.20;1.43;;;;;;;14.53;100.00;97989.00;5101888;28;20664;-69
2022/09/10 01:27:05;;;;;;;1.80;1.20;;;;;;;14.53;100.00;97986.34;5101541;28;20281;-67
2022/09/10 01:29:38;;;;;;;1.17;1.00;;;;;;;14.51;100.00;97986.50;5101853;28;20226;-69
2022/09/10 01:32:11;;;;;;;6.17;1.20;;;;;;;14.50;100.00;97981.31;5103879;28;20439;-69
2022/09/10 01:34:44;;;;;;;2.57;1.00;;;;;;;14.50;100.00;97987.47;5101554;28;20232;-69
2022/09/10 01:37:20;;;;;;;3.23;1.40;;;;;;;14.55;100.00;97992.38;5101270;28;20222;-67
2022/09/10 01:39:48;;;;;;;2.20;1.50;;;;;;;14.44;100.00;97980.03;5102257;28;20224;-69
2022/09/10 01:42:15;;;;;;;2.73;1.17;;;;;;;14.38;100.00;97983.22;5103798;28;20277;-69
2022/09/10 01:44:45;;;;;;;2.03;1.20;;;;;;;14.34;100.00;97986.25;5101508;28;20299;-69
2022/09/10 01:47:21;;;;;;;1.40;0.90;;;;;;;14.36;100.00;97981.66;5101316;28;20246;-71
2022/09/10 01:50:21;;;;;;;2.90;1.07;;;;;;;14.20;100.00;97970.66;5103476;28;20228;-69
2022/09/10 01:53:06;;;;;;;1.80;1.10;;;;;;;14.15;100.00;97975.50;5091837;28;20291;-69
2022/09/10 01:55:42;;;;;;;2.17;1.20;;;;;;;14.12;100.00;97973.13;5102230;28;20226;-69
2022/09/10 01:58:19;;;;;;;1.40;1.10;;;;;;;14.12;100.00;97970.47;5102320;28;20339;-70
2022/09/10 02:00:53;;;;;;;1.10;0.90;;;;;;;14.17;100.00;97968.25;5100121;28;20317;-70
2022/09/10 02:03:24;;;;;;;1.67;1.10;;;;;;;14.19;100.00;97974.31;5101203;28;20623;-70
2022/09/10 02:05:53;;;;;;;1.57;0.90;;;;;;;14.22;100.00;97958.94;5100642;28;20230;-70
2022/09/10 02:08:26;;;;;;;1.00;0.90;;;;;;;14.22;100.00;97961.59;5100951;28;20245;-70
2022/09/10 02:10:55;;;;;;;3.70;1.00;;;;;;;14.21;100.00;97967.03;5101075;28;20545;-69
2022/09/10 02:13:23;;;;;;;3.87;1.10;;;;;;;14.17;100.00;97970.91;5102830;28;20230;-70
2022/09/10 02:15:52;;;;;;;1.77;1.20;;;;;;;14.17;100.00;97970.91;5102140;28;20279;-69
2022/09/10 02:18:20;;;;;;;2.00;1.20;;;;;;;14.20;100.00;97965.34;5100936;28;20316;-69
2022/09/10 02:20:49;;;;;;;3.90;1.13;;;;;;;14.23;100.00;97965.09;5100905;28;20297;-68
2022/09/10 02:23:20;;;;;;;2.73;1.10;;;;;;;14.20;100.00;97973.31;5100666;28;20257;-68
2022/09/10 02:25:48;;;;;;;2.93;1.10;;;;;;;14.21;100.00;97970.53;5100995;28;20238;-67
2022/09/10 02:28:15;;;;;;;2.30;1.20;;;;;;;14.18;100.00;97973.41;5098898;28;20276;-65
2022/09/10 02:30:41;;;;;;;1.63;1.20;;;;;;;14.18;100.00;97972.59;5100745;28;20323;-64
2022/09/10 02:33:10;;;;;;;3.13;1.10;;;;;;;14.13;100.00;97966.81;5103333;28;20264;-64
2022/09/10 02:35:37;;;;;;;3.00;1.20;;;;;;;14.15;100.00;97972.84;5100730;28;20294;-64
2022/09/10 02:38:04;;;;;;;2.57;1.10;;;;;;;14.13;100.00;97964.97;5100643;28;20330;-64
2022/09/10 02:40:31;;;;;;;3.03;1.17;;;;;;;14.06;100.00;97966.50;5100602;28;20230;-63
2022/09/10 02:42:58;;;;;;;2.47;1.27;;;;;;;14.04;100.00;97970.25;5103317;28;20264;-62
2022/09/10 02:45:25;;;;;;;1.73;1.10;;;;;;;14.03;100.00;97965.91;5100984;28;20264;-62
2022/09/10 02:47:51;;;;;;;3.00;1.17;;;;;;;14.00;100.00;97967.00;5100524;28;20676;-62
2022/09/10 02:50:20;;;;;;;1.30;1.13;;;;;;;14.03;100.00;97960.59;5100594;28;20628;-63
2022/09/10 02:52:47;;;;;;;2.27;1.37;;;;;;;14.07;100.00;97954.06;5101984;28;20280;-63
2022/09/10 02:55:14;;;;;;;2.97;1.30;;;;;;;14.11;100.00;97955.50;5099800;28;20282;-64
2022/09/10 02:57:41;;;;;;;1.53;1.10;;;;;;;14.15;100.00;97949.78;5100347;28;20222;-63
2022/09/10 03:00:08;;;;;;;2.13;1.20;;;;;;;14.14;100.00;97956.06;5100345;28;20228;-63
2022/09/10 03:02:35;;;;;;;1.57;1.10;;;;;;;14.17;100.00;97949.66;5102725;28;20573;-63
2022/09/10 03:05:03;;;;;;;2.13;1.37;;;;;;;14.17;100.00;97950.47;5100947;28;20229;-62
2022/09/10 03:07:33;;;;;;;2.17;1.20;;;;;;;14.16;100.00;97947.94;5100279;28;20659;-62
2022/09/10 03:09:59;;;;;;;2.00;1.20;;;;;;;14.17;100.00;97954.97;5100425;28;20252;-62
2022/09/10 03:12:26;;;;;;;1.90;1.20;;;;;;;14.16;100.00;97951.44;5102848;28;20336;-62
2022/09/10 03:14:53;;;;;;;1.53;1.27;;;;;;;14.16;100.00;97953.25;5100905;28;20263;-63
2022/09/10 03:17:19;;;;;;;1.43;1.10;;;;;;;14.17;100.00;97939.00;5100208;28;20270;-62
2022/09/10 03:19:46;;;;;;;3.13;1.23;;;;;;;14.14;100.00;97944.56;5098421;28;20268;-61
2022/09/10 03:22:13;;;;;;;1.60;1.17;;;;;;;14.12;100.00;97947.34;5101167;28;20224;-62
2022/09/10 03:24:41;;;;;;;2.07;1.30;;;;;;;14.13;100.00;97937.59;5101353;28;20519;-61
2022/09/10 03:27:08;;;;;;;1.87;1.10;;;;;;;14.12;100.00;97942.03;5100038;28;20678;-62
2022/09/10 03:29:35;;;;;;;2.57;1.30;;;;;;;14.14;100.00;97941.91;5100022;28;20634;-62
2022/09/10 03:32:02;;;;;;;3.63;1.40;;;;;;;14.16;100.00;97953.25;5101745;28;20266;-62
2022/09/10 03:34:29;;;;;;;1.00;1.00;;;;;;;14.18;100.00;97941.50;5101231;28;20267;-64
2022/09/10 03:36:55;;;;;;;3.30;1.37;;;;;;;14.19;100.00;97943.22;5099925;28;20274;-64
2022/09/10 03:39:22;;;;;;;1.80;1.40;;;;;;;14.22;100.00;97942.97;5099890;28;20501;-65
2022/09/10 03:41:50;;;;;;;2.33;1.50;;;;;;;14.23;100.00;97938.50;5101026;28;20254;-65
2022/09/10 03:44:17;;;;;;;2.67;1.40;;;;;;;14.21;100.00;97935.97;5101296;28;20285;-65
2022/09/10 03:46:44;;;;;;;2.60;1.17;;;;;;;14.25;100.00;97939.22;5104379;28;20638;-66
2022/09/10 03:49:11;;;;;;;1.83;1.37;;;;;;;14.25;100.00;97932.06;5103068;28;20246;-66
2022/09/10 03:51:37;;;;;;;4.00;1.43;;;;;;;14.28;100.00;97941.59;5100885;28;20280;-66
2022/09/10 03:54:04;;;;;;;2.57;1.30;;;;;;;14.29;100.00;97944.13;5101650;28;20269;-67
2022/09/10 03:56:31;;;;;;;2.77;1.60;;;;;;;14.26;100.00;97939.09;5099775;28;20236;-67
2022/09/10 03:59:00;;;;;;;4.10;1.50;;;;;;;14.28;100.00;97941.59;5099845;28;20289;-66
2022/09/10 04:01:27;;;;;;;2.07;1.73;;;;;;;14.27;100.00;97939.91;5100849;28;20224;-68
2022/09/10 04:03:55;;;;;;;3.43;1.73;;;;;;;14.31;100.00;97936.03;5101825;28;20255;-68
2022/09/10 04:06:22;;;;;;;3.23;1.73;;;;;;;14.34;100.00;97933.09;5101238;28;20229;-66
2022/09/10 04:08:49;;;;;;;3.07;1.70;;;;;;;14.32;100.00;97943.03;5103296;28;20716;-67
2022/09/10 04:11:16;;;;;;;1.93;1.70;;;;;;;14.34;100.00;97927.75;5102540;28;20265;-66
2022/09/10 04:13:42;;;;;;;2.97;1.63;;;;;;;14.30;100.00;97939.66;5105499;28;20229;-66
2022/09/10 04:16:11;;;;;;;3.60;1.80;;;;;;;14.29;100.00;97930.00;5103235;28;20230;-66
2022/09/10 04:18:38;;;;;;;1.93;1.40;;;;;;;14.25;100.00;97931.25;5103244;28;20227;-67
2022/09/10 04:21:04;;;;;;;1.70;1.30;;;;;;;14.25;100.00;97936.56;5103974;28;20290;-66
2022/09/10 04:23:32;;;;;;;3.80;2.03;;;;;;;14.22;100.00;97937.66;5103427;28;20278;-67
2022/09/10 04:25:58;;;;;;;2.50;1.30;;;;;;;14.27;100.00;97929.28;5103118;28;20631;-67
2022/09/10 04:28:25;;;;;;;3.73;1.60;;;;;;;14.24;100.00;97934.88;5103009;28;20612;-67
2022/09/10 04:30:52;;;;;;;2.10;1.60;;;;;;;14.14;100.00;97939.25;5103357;28;20232;-67
2022/09/10 04:33:20;;;;;;;2.30;1.50;;;;;;;14.06;100.00;97944.41;5105611;28;20257;-68
2022/09/10 04:35:46;;;;;;;3.87;1.33;;;;;;;14.00;100.00;97942.28;5102890;28;20261;-68
2022/09/10 04:38:13;;;;;;;2.40;1.50;;;;;;;14.02;100.00;97942.97;5101000;28;20334;-69
2022/09/10 04:40:40;;;;;;;1.30;1.20;;;;;;;14.06;100.00;97949.72;5102971;28;20284;-69
2022/09/10 04:43:07;;;;;;;4.13;1.40;;;;;;;14.02;100.00;97945.63;5105654;28;20683;-69
2022/09/10 04:45:34;;;;;;;3.13;1.97;;;;;;;13.96;100.00;97943.50;5102696;28;20285;-69
2022/09/10 04:48:01;;;;;;;2.40;1.40;;;;;;;14.02;100.00;97945.63;5102697;28;20335;-69
2022/09/10 04:50:29;;;;;;;2.03;1.40;;;;;;;14.13;100.00;97945.56;5102705;28;20230;-68
2022/09/10 04:52:55;;;;;;;2.57;1.40;;;;;;;14.14;100.00;97945.44;5099644;28;20249;-67
2022/09/10 04:55:24;;;;;;;2.33;1.53;;;;;;;14.23;100.00;97949.16;5102599;28;20226;-67
2022/09/10 04:57:51;;;;;;;2.53;1.40;;;;;;;14.19;100.00;97953.03;5102605;28;20237;-67
2022/09/10 05:00:18;;;;;;;2.17;1.20;;;;;;;14.24;100.00;97956.97;5102435;28;20237;-67
2022/09/10 05:02:45;;;;;;;1.50;1.20;;;;;;;14.30;100.00;97960.94;5098632;28;20501;-67
2022/09/10 05:05:12;;;;;;;0.93;0.93;;;;;;;14.35;100.00;97958.72;5101519;28;20584;-69
2022/09/10 05:07:40;;;;;;;3.87;1.30;;;;;;;14.42;100.00;97970.50;5102275;28;20325;-69
2022/09/10 05:10:09;;;;;;;1.40;0.90;;;;;;;14.46;100.00;97971.91;5102193;28;20225;-67
2022/09/10 05:12:37;;;;;;;1.70;1.00;;;;;;;14.48;100.00;97970.78;5099103;28;20222;-69
2022/09/10 05:15:04;;;;;;;2.10;1.17;;;;;;;14.50;100.00;97962.69;5102249;28;20265;-69
2022/09/10 05:17:32;;;;;;;2.33;1.07;;;;;;;14.54;100.00;97969.44;5101589;28;20622;-68
2022/09/10 05:19:58;;;;;;;1.57;1.13;;;;;;;14.56;100.00;97978.09;5102035;28;20222;-68
2022/09/10 05:22:25;;;;;;;1.53;1.20;;;;;;;14.54;100.00;97975.56;5104963;28;20313;-69
2022/09/10 05:24:54;;;;;;;1.97;1.13;;;;;;;14.54;100.00;97982.72;5101915;28;20657;-68
2022/09/10 05:27:20;;;;;;;2.37;1.20;;;;;;;14.55;100.00;97987.06;5101808;28;20643;-68
2022/09/10 05:29:47;;;;;;;2.17;1.10;;;;;;;14.52;100.00;97976.69;5100056;28;20272;-69
2022/09/10 05:32:14;;;;;;;2.10;1.20;;;;;;;14.54;100.00;97982.72;5098474;28;20229;-69
2022/09/10 05:34:40;;;;;;;3.17;1.10;;;;;;;14.52;100.00;97976.69;5101826;28;20307;-69
2022/09/10 05:37:07;;;;;;;1.47;1.03;;;;;;;14.52;100.00;97979.34;5101708;28;20261;-69
2022/09/10 05:39:34;;;;;;;1.93;1.10;;;;;;;14.52;100.00;97971.34;5101639;28;20226;-70
2022/09/10 05:42:02;;;;;;;2.20;1.27;;;;;;;14.51;100.00;97969.69;5104904;28;20261;-70
2022/09/10 05:44:29;;;;;;;4.00;1.30;;;;;;;14.46;100.00;97978.06;5101632;28;20596;-70
2022/09/10 05:46:56;;;;;;;1.20;1.10;;;;;;;14.47;100.00;97962.94;5101543;28;20272;-70
2022/09/10 05:49:22;;;;;;;0.87;0.87;;;;;;;14.46;100.00;97971.91;5101418;28;20306;-70
2022/09/10 05:51:49;;;;;;;1.93;1.20;;;;;;;14.47;100.00;97961.13;5104337;28;20362;-69
2022/09/10 05:54:16;;;;;;;1.37;1.20;;;;;;;14.49;100.00;97966.31;5088161;28;20264;-68
2022/09/10 05:56:43;;;;;;;1.93;1.00;;;;;;;14.52;100.00;97961.56;5099571;28;20264;-69
2022/09/10 05:59:11;;;;;;;1.77;1.30;;;;;;;14.56;100.00;97965.66;5101104;28;20639;-68
2022/09/10 06:01:38;;;;;;;1.80;1.13;;;;;;;14.58;100.00;97977.00;5104216;28;20303;-68
2022/09/10 06:04:04;;;;;;;2.77;1.10;;;;;;;14.60;100.00;97979.53;5101326;28;20599;-68
2022/09/10 06:06:31;;;;;;;3.53;1.10;;;;;;;14.59;100.00;97978.69;5101146;28;20227;-68
2022/09/10 06:08:58;;;;;;;2.70;1.13;;;;;;;14.62;100.00;97975.75;5100965;28;20304;-69
2022/09/10 06:11:24;;;;;;;1.10;1.00;;;;;;;14.67;100.00;97986.00;5103393;28;20275;-69
2022/09/10 06:13:52;;;;;;;1.47;0.97;;;;;;;14.71;100.00;97987.38;5101514;28;20262;-69
2022/09/10 06:16:20;;;;;;;1.70;0.83;;;;;;;14.72;100.00;97989.09;5100907;28;20505;-69
2022/09/10 06:18:46;;;;;;;1.90;1.10;;;;;;;14.77;100.00;97992.16;5100818;28;20630;-69
2022/09/10 06:21:15;;;;;;;1.93;1.13;;;;;;;14.79;100.00;97988.41;5100580;28;20593;-69
2022/09/10 06:23:42;;;;;;;1.67;0.97;;;;;;;14.85;100.00;97997.69;5100852;28;20321;-69
2022/09/10 06:26:11;;;;;;;1.70;1.33;;;;;;;14.88;100.00;98002.72;5100675;28;20226;-69
2022/09/10 06:28:39;;;;;;;1.30;1.20;;;;;;;14.93;100.00;98000.50;5099895;28;20299;-69
2022/09/10 06:31:06;;;;;;;2.33;1.37;;;;;;;15.04;100.00;98003.03;5103263;28;20226;-69
2022/09/10 06:33:35;;;;;;;1.73;1.33;;;;;;;15.10;100.00;98006.00;5100957;28;20543;-69
2022/09/10 06:36:02;;;;;;;2.07;0.87;;;;;;;15.12;100.00;98004.06;5100667;28;20355;-69
2022/09/10 06:38:32;;;;;;;2.90;1.17;;;;;;;15.14;100.00;98001.22;5100588;28;20248;-69
2022/09/10 06:41:00;;;;;;;1.27;1.10;;;;;;;15.14;100.00;97998.56;5100476;28;20222;-70
2022/09/10 06:43:31;;;;;;;2.77;1.20;;;;;;;15.17;100.00;98003.63;5087601;28;20639;-71
2022/09/10 06:45:58;;;;;;;1.20;1.10;;;;;;;15.22;100.00;98009.38;5100434;28;20273;-70
2022/09/10 06:48:26;;;;;;;3.17;1.20;;;;;;;15.27;100.00;98007.16;5097054;28;20281;-69
2022/09/10 06:50:56;;;;;;;1.53;1.10;;;;;;;15.29;100.00;98010.53;5101004;28;20740;-69
2022/09/10 06:53:23;;;;;;;1.27;1.10;;;;;;;15.36;100.00;98023.19;5099742;28;20291;-70
2022/09/10 06:55:51;;;;;;;1.23;0.90;;;;;;;15.40;100.00;98013.91;5100394;28;20225;-69
2022/09/10 06:58:19;;;;;;;1.83;0.97;;;;;;;15.42;100.00;98017.31;5100305;28;20280;-69
2022/09/10 07:00:46;;;;;;;3.10;0.90;;;;;;;15.50;100.00;98027.25;5097236;28;20526;-71
2022/09/10 07:03:15;;;;;;;1.30;1.10;;;;;;;15.54;100.00;98020.66;5100239;28;20233;-69
2022/09/10 07:05:42;;;;;;;2.73;0.97;;;;;;;15.61;100.00;98027.13;5100150;28;20283;-68
2022/09/10 07:08:11;;;;;;;1.20;1.07;;;;;;;15.73;100.00;98026.00;5100151;28;20346;-68
2022/09/10 07:10:38;;;;;;;1.80;0.73;;;;;;;15.86;100.00;98032.75;5102950;28;20279;-68
2022/09/10 07:13:04;;;;;;;0.93;0.80;;;;;;;15.98;100.00;98037.75;5098551;28;20262;-68
2022/09/10 07:15:31;;;;;;;1.53;1.20;;;;;;;16.10;100.00;98035.81;5100107;28;20314;-68
2022/09/10 07:17:58;;;;;;;1.13;0.80;;;;;;;16.22;100.00;98046.16;5100122;28;20239;-68
2022/09/10 07:20:27;;;;;;;1.23;0.90;;;;;;;16.38;100.00;98046.44;5096906;28;20637;-68
2022/09/10 07:22:55;;;;;;;1.30;0.90;;;;;;;16.54;100.00;98046.69;5100114;28;20225;-68
2022/09/10 07:25:24;;;;;;;1.83;1.00;;;;;;;16.70;100.00;98057.59;5100190;28;20540;-68
2022/09/10 07:27:50;;;;;;;1.00;0.70;;;;;;;16.81;100.00;98060.09;5100246;28;20234;-69
2022/09/10 07:30:18;;;;;;;0.70;0.70;;;;;;;16.87;100.00;98064.84;5102855;28;20278;-68
2022/09/10 07:32:47;;;;;;;1.10;0.70;;;;;;;16.91;100.00;98060.91;5099967;28;20595;-69
2022/09/10 07:35:14;;;;;;;0.63;0.63;;;;;;;17.04;100.00;98065.88;5100048;28;20577;-69
2022/09/10 07:37:41;;;;;;;1.17;0.70;;;;;;;17.05;100.00;98067.56;5100397;28;20231;-69
2022/09/10 07:40:09;;;;;;;0.50;0.50;;;;;;;17.08;100.00;98078.78;5102389;28;20220;-69
2022/09/10 07:42:37;;;;;;;0.90;0.60;;;;;;;17.17;100.00;98085.94;5103783;28;20265;-69
2022/09/10 07:45:06;;;;;;;1.13;0.67;;;;;;;17.23;100.00;98080.00;5103779;28;20226;-69
2022/09/10 07:47:33;;;;;;;1.33;0.70;;;;;;;17.33;100.00;98083.47;5104363;28;20315;-69
2022/09/10 07:50:00;;;;;;;0.60;0.60;;;;;;;17.38;100.00;98075.84;5106278;28;20282;-69
2022/09/10 07:52:26;;;;;;;0.60;0.60;;;;;;;17.41;100.00;98088.94;5103836;28;20546;-69
2022/09/10 07:54:53;;;;;;;1.63;0.60;;;;;;;17.40;100.00;98091.75;5103688;28;20644;-68
2022/09/10 07:57:19;;;;;;;0.70;0.70;;;;;;;17.37;100.00;98089.34;5103708;28;20265;-69
2022/09/10 07:59:47;;;;;;;2.17;1.00;;;;;;;17.36;100.00;98083.16;5106542;28;20222;-69
2022/09/10 08:02:15;;;;;;;1.17;0.70;;;;;;;17.37;100.00;98089.34;5103563;28;20257;-69
2022/09/10 08:04:41;;;;;;;2.80;0.83;;;;;;;17.36;100.00;98093.84;5103519;28;20237;-68
2022/09/10 08:07:08;;;;;;;1.17;0.70;;;;;;;17.46;100.00;98089.31;5101764;28;20231;-70
2022/09/10 08:09:35;;;;;;;1.60;0.80;;;;;;;17.52;100.00;98088.72;5100087;28;20238;-69
2022/09/10 08:12:01;;;;;;;1.70;0.77;;;;;;;17.57;100.00;98091.78;5103480;28;20304;-69
2022/09/10 08:14:28;;;;;;;1.00;0.70;;;;;;;17.59;100.00;98089.81;5103229;28;20226;-69
2022/09/10 08:16:57;;;;;;;1.40;1.27;;;;;;;17.59;100.00;98094.28;5103173;28;20226;-70
2022/09/10 08:19:23;;;;;;;0.80;0.70;;;;;;;17.52;100.00;98098.56;5104625;28;20218;-69
2022/09/10 08:21:50;;;;;;;1.30;1.00;;;;;;;17.57;100.00;98097.16;5100551;28;20290;-69
2022/09/10 08:24:17;;;;;;;1.20;0.70;;;;;;;17.69;100.00;98100.44;5101792;28;20628;-69
2022/09/10 08:26:44;;;;;;;1.20;0.80;;;;;;;17.81;100.00;98092.03;5101796;28;20231;-69
2022/09/10 08:29:10;;;;;;;1.80;0.77;;;;;;;18.11;100.00;98091.66;5104964;28;20242;-69
2022/09/10 08:31:37;;;;;;;1.40;0.70;;;;;;;18.41;100.00;98101.97;5087027;28;20227;-68
2022/09/10 08:34:07;;;;;;;0.90;0.60;;;;;;;18.59;100.00;98101.97;5101675;28;20227;-68
2022/09/10 08:36:33;;;;;;;0.80;0.80;;;;;;;18.69;99.10;98095.50;5101521;28;20217;-68
2022/09/10 08:39:00;;;;;;;0.80;0.53;;;;;;;18.84;96.74;98088.56;5104725;28;20222;-68
2022/09/10 08:41:37;;;;;;;2.17;0.70;;;;;;;18.82;94.93;98097.75;5088445;28;20222;-70
2022/09/10 08:44:10;;;;;;;1.17;0.70;;;;;;;18.90;93.90;98097.81;5101375;28;20219;-68
2022/09/10 08:46:43;;;;;;;1.73;1.03;;;;;;;18.95;91.55;98098.19;5102254;28;20229;-68
2022/09/10 08:49:18;;;;;;;1.00;0.60;;;;;;;19.00;91.33;98096.69;5102361;28;20552;-72
2022/09/10 08:51:50;;;;;;;0.93;0.70;;;;;;;19.00;89.54;98101.19;5100313;28;20638;-68
2022/09/10 08:54:21;;;;;;;1.10;0.70;;;;;;;18.91;90.73;98099.50;5101053;28;20222;-69
2022/09/10 08:56:49;;;;;;;0.57;0.57;;;;;;;18.85;91.80;98103.66;5098127;28;20226;-70
2022/09/10 08:59:23;;;;;;;1.00;0.73;;;;;;;18.81;91.69;98104.97;5099386;28;20218;-70
2022/09/10 09:01:55;;;;;;;1.00;0.83;;;;;;;18.81;91.03;98107.63;5101173;28;20227;-70
2022/09/10 09:04:32;;;;;;;1.40;0.80;;;;;;;18.81;91.55;98113.00;5102690;28;20537;-70
2022/09/10 09:07:03;;;;;;;0.97;0.60;;;;;;;18.79;92.47;98108.78;5100951;28;20265;-69
2022/09/10 09:09:30;;;;;;;1.33;0.73;;;;;;;18.74;92.93;98111.94;5100766;28;20246;-70
2022/09/10 09:12:02;;;;;;;1.70;0.70;;;;;;;18.72;92.94;98107.75;5100815;28;20222;-70
2022/09/10 09:14:47;;;;;;;1.87;0.87;;;;;;;18.84;92.06;98111.84;5097651;28;20222;-69
2022/09/10 09:17:45;;;;;;;1.10;0.73;;;;;;;18.99;90.99;98110.25;5100706;28;20258;-69
2022/09/10 09:20:18;;;;;;;1.80;0.73;;;;;;;19.23;90.46;98105.06;5090172;28;20218;-69
2022/09/10 09:22:51;;;;;;;1.57;0.70;;;;;;;19.39;87.93;98097.91;5093403;28;20219;-69
2022/09/10 09:25:27;;;;;;;3.23;0.80;;;;;;;19.51;86.23;98101.16;5098929;28;20262;-70
2022/09/10 09:27:55;;;;;;;3.00;0.80;;;;;;;19.45;83.60;98091.91;5101570;28;20265;-69
2022/09/10 09:30:25;;;;;;;1.40;1.00;;;;;;;19.19;80.77;98106.34;5102311;28;20241;-68
2022/09/10 09:32:54;;;;;;;2.53;0.90;;;;;;;18.98;83.06;98098.72;5100529;28;20250;-68
2022/09/10 09:35:27;;;;;;;1.53;0.90;;;;;;;18.94;87.14;98097.34;5100348;28;20266;-68
2022/09/10 09:38:16;;;;;;;2.73;1.20;;;;;;;19.08;85.24;98102.09;5102747;28;20314;-68
2022/09/10 09:40:47;;;;;;;2.33;1.10;;;;;;;19.10;79.72;98099.25;5089514;28;20258;-68
2022/09/10 09:43:24;;;;;;;1.70;0.83;;;;;;;18.97;81.61;98102.34;5100167;28;20639;-69
2022/09/10 09:45:52;;;;;;;3.03;1.03;;;;;;;18.80;82.71;98102.44;5103380;28;20234;-69
2022/09/10 09:48:21;;;;;;;2.77;1.07;;;;;;;18.73;84.21;98104.91;5087357;28;20223;-68
2022/09/10 09:50:53;;;;;;;2.53;0.90;;;;;;;18.70;82.49;98105.22;5098346;28;20674;-68
2022/09/10 09:53:24;;;;;;;3.33;1.10;;;;;;;18.62;84.43;98113.19;5100208;28;20339;-69
2022/09/10 09:55:53;;;;;;;1.40;0.90;;;;;;;18.50;84.56;98109.09;5097318;28;20549;-69
2022/09/10 09:58:35;;;;;;;1.63;0.90;;;;;;;18.37;86.37;98105.97;5099976;28;20560;-68
2022/09/10 10:01:15;;;;;;;1.93;0.80;;;;;;;18.22;84.98;98104.78;5099920;28;20227;-68
2022/09/10 10:04:01;;;;;;;5.80;1.20;;;;;;;18.19;85.05;98104.25;5097114;28;20268;-70
2022/09/10 10:06:33;;;;;;;2.17;0.97;;;;;;;18.20;84.39;98098.78;5099720;28;20230;-69
2022/09/10 10:09:06;;;;;;;1.97;0.90;;;;;;;18.35;83.51;98101.78;5099682;28;20273;-69
2022/09/10 10:11:45;;;;;;;2.37;1.00;;;;;;;18.41;84.05;98107.31;5096610;28;20218;-69
2022/09/10 10:14:24;;;;;;;2.33;0.90;;;;;;;18.49;84.43;98102.06;5099876;28;20555;-69
2022/09/10 10:16:52;;;;;;;1.53;0.60;;;;;;;18.40;84.38;98108.31;5098851;28;20481;-69
2022/09/10 10:19:33;;;;;;;1.60;0.70;;;;;;;18.05;86.70;98100.28;5102082;28;20222;-69
2022/09/10 10:22:26;;;;;;;1.57;0.73;;;;;;;17.73;91.50;98112.50;5098827;28;20529;-70
2022/09/10 10:24:54;;;;;;;2.63;0.80;;;;;;;17.85;91.36;98122.81;5100096;28;20578;-69
2022/09/10 10:27:28;;;;;;;1.73;1.10;;;;;;;18.21;90.45;98110.28;5101888;28;20230;-69
2022/09/10 10:29:58;;;;;;;1.50;1.07;;;;;;;18.70;88.61;98110.56;5099395;28;20295;-69
2022/09/10 10:32:48;;;;;;;1.53;0.83;;;;;;;19.07;85.36;98097.75;5099377;28;20226;-70
2022/09/10 10:35:32;;;;;;;1.60;0.83;;;;;;;19.13;84.42;98102.47;5097218;28;20274;-69
2022/09/10 10:38:19;;;;;;;2.00;0.90;;;;;;;18.93;84.61;98106.38;5099251;28;20257;-69
2022/09/10 10:40:55;;;;;;;1.30;0.80;;;;;;;18.77;87.81;98105.44;5101298;28;20215;-69
2022/09/10 10:43:33;;;;;;;1.50;0.80;;;;;;;18.37;88.76;98097.94;5085621;28;20279;-69
2022/09/10 10:46:04;;;;;;;1.03;0.70;;;;;;;18.23;91.32;98100.31;5099092;28;20288;-69
2022/09/10 10:48:47;;;;;;;0.73;0.50;;;;;;;18.19;89.37;98093.56;5099970;28;20491;-69
2022/09/10 10:51:20;;;;;;;2.10;0.67;;;;;;;18.40;88.65;98097.63;5088100;28;20913;-69
2022/09/10 10:54:07;;;;;;;1.83;1.30;;;;;;;18.55;88.99;98090.72;5099226;28;20575;-69
2022/09/10 10:56:39;;;;;;;2.67;0.83;;;;;;;18.50;87.64;98098.38;5101546;28;20226;-69
2022/09/10 10:59:32;;;;;;;1.80;1.13;;;;;;;18.65;88.59;98083.41;5108811;28;20283;-69
2022/09/10 11:02:11;;;;;;;2.87;0.87;;;;;;;19.07;86.97;98086.19;5099084;28;20631;-69
2022/09/10 11:04:42;;;;;;;0.97;0.80;;;;;;;19.63;86.48;98083.78;5095898;28;20245;-69
2022/09/10 11:07:14;;;;;;;3.10;1.50;;;;;;;19.93;82.14;98081.31;5098976;28;20525;-69
2022/09/10 11:09:46;;;;;;;2.20;0.80;;;;;;;20.21;80.00;98082.72;5099075;28;20303;-69
2022/09/10 11:12:18;;;;;;;1.37;0.80;;;;;;;20.46;78.15;98089.78;5099501;28;20254;-69
2022/09/10 11:14:50;;;;;;;1.67;0.80;;;;;;;20.87;77.83;98083.34;5101546;28;20375;-68
2022/09/10 11:17:22;;;;;;;1.00;0.80;;;;;;;21.05;75.31;98081.34;5105635;28;20222;-70
2022/09/10 11:19:58;;;;;;;2.47;0.80;;;;;;;21.33;72.66;98079.88;5105564;28;20271;-68
2022/09/10 11:22:30;;;;;;;0.93;0.70;;;;;;;21.43;72.21;98079.66;5103099;28;20517;-68
2022/09/10 11:25:07;;;;;;;1.60;0.80;;;;;;;21.33;71.38;98071.81;5105611;28;20307;-68
2022/09/10 11:27:38;;;;;;;1.13;0.90;;;;;;;20.97;70.19;98078.66;5105438;28;20314;-70
2022/09/10 11:30:10;;;;;;;3.23;0.90;;;;;;;20.87;71.11;98072.63;5108450;28;20280;-69
2022/09/10 11:32:41;;;;;;;1.37;0.90;;;;;;;20.77;74.47;98071.94;5092930;28;20261;-69
2022/09/10 11:35:20;;;;;;;2.53;0.83;;;;;;;20.79;74.65;98067.22;5105344;28;20646;-69
2022/09/10 11:37:57;;;;;;;1.90;0.60;;;;;;;20.65;71.58;98073.31;5105235;28;20509;-69
2022/09/10 11:40:34;;;;;;;1.90;0.80;;;;;;;20.49;68.65;98062.56;5105420;28;20521;-69